sensor_id;sensor_type;location;lat;lon;timestamp;P1;durP1;ratioP1;P2;durP2;ratioP2
65037;SDS011;51605;47.040;15.294;2023-02-18T00:02:09;3.03;;;2.40;;
65037;SDS011;51605;47.040;15.294;2023-02-18T00:04:35;3.20;;;2.40;;
65037;SDS011;51605;47.040;15.294;2023-02-18T00:07:00;3.08;;;2.30;;
65037;SDS011;51605;47.040;15.294;2023-02-18T00:09:26;2.70;;;2.20;;
65037;SDS011;51605;47.040;15.294;2023-02-18T00:11:52;3.35;;;2.30;;
65037;SDS011;51605;47.040;15.294;2023-02-18T00:14:18;2.72;;;2.20;;
65037;SDS011;51605;47.040;15.294;2023-02-18T00:16:44;3.00;;;2.25;;
65037;SDS011;51605;47.040;15.294;2023-02-18T00:19:14;3.60;;;2.43;;
65037;SDS011;51605;47.040;15.294;2023-02-18T00:21:41;3.05;;;2.33;;
65037;SDS011;51605;47.040;15.294;2023-02-18T00:24:08;2.95;;;2.22;;
65037;SDS011;51605;47.040;15.294;2023-02-18T00:26:36;3.10;;;2.30;;
65037;SDS011;51605;47.040;15.294;2023-02-18T00:29:02;4.30;;;2.67;;
65037;SDS011;51605;47.040;15.294;2023-02-18T00:31:29;3.33;;;2.30;;
65037;SDS011;51605;47.040;15.294;2023-02-18T00:33:56;3.35;;;2.40;;
65037;SDS011;51605;47.040;15.294;2023-02-18T00:36:23;3.47;;;2.40;;
65037;SDS011;51605;47.040;15.294;2023-02-18T00:38:50;3.28;;;2.25;;
65037;SDS011;51605;47.040;15.294;2023-02-18T00:41:17;3.45;;;2.42;;
65037;SDS011;51605;47.040;15.294;2023-02-18T00:43:44;3.50;;;2.42;;
65037;SDS011;51605;47.040;15.294;2023-02-18T00:46:10;2.75;;;2.10;;
65037;SDS011;51605;47.040;15.294;2023-02-18T00:48:35;3.95;;;2.30;;
65037;SDS011;51605;47.040;15.294;2023-02-18T00:51:03;2.85;;;2.28;;
65037;SDS011;51605;47.040;15.294;2023-02-18T00:53:30;3.00;;;2.33;;
65037;SDS011;51605;47.040;15.294;2023-02-18T00:55:56;3.47;;;2.20;;
65037;SDS011;51605;47.040;15.294;2023-02-18T00:58:21;3.17;;;2.28;;
65037;SDS011;51605;47.040;15.294;2023-02-18T01:00:47;3.15;;;2.33;;
65037;SDS011;51605;47.040;15.294;2023-02-18T01:03:13;3.30;;;2.38;;
65037;SDS011;51605;47.040;15.294;2023-02-18T01:05:39;3.22;;;2.22;;
65037;SDS011;51605;47.040;15.294;2023-02-18T01:08:06;3.13;;;2.30;;
65037;SDS011;51605;47.040;15.294;2023-02-18T01:10:34;3.47;;;2.50;;
65037;SDS011;51605;47.040;15.294;2023-02-18T01:15:28;3.03;;;2.17;;
65037;SDS011;51605;47.040;15.294;2023-02-18T01:17:54;2.53;;;2.00;;
65037;SDS011;51605;47.040;15.294;2023-02-18T01:20:19;3.33;;;2.33;;
65037;SDS011;51605;47.040;15.294;2023-02-18T01:22:45;2.92;;;2.45;;
65037;SDS011;51605;47.040;15.294;2023-02-18T01:25:11;2.95;;;2.17;;
65037;SDS011;51605;47.040;15.294;2023-02-18T01:27:37;3.20;;;2.13;;
65037;SDS011;51605;47.040;15.294;2023-02-18T01:30:04;3.13;;;2.15;;
65037;SDS011;51605;47.040;15.294;2023-02-18T01:32:30;3.08;;;2.20;;
65037;SDS011;51605;47.040;15.294;2023-02-18T01:34:56;3.90;;;2.25;;
65037;SDS011;51605;47.040;15.294;2023-02-18T01:37:21;3.33;;;2.35;;
65037;SDS011;51605;47.040;15.294;2023-02-18T01:39:47;2.75;;;2.10;;
65037;SDS011;51605;47.040;15.294;2023-02-18T01:42:19;3.22;;;2.10;;
65037;SDS011;51605;47.040;15.294;2023-02-18T01:44:48;3.17;;;2.00;;
65037;SDS011;51605;47.040;15.294;2023-02-18T01:47:14;2.60;;;2.00;;
65037;SDS011;51605;47.040;15.294;2023-02-18T01:49:41;3.15;;;2.40;;
65037;SDS011;51605;47.040;15.294;2023-02-18T01:52:14;3.45;;;2.33;;
65037;SDS011;51605;47.040;15.294;2023-02-18T01:54:48;3.30;;;2.33;;
65037;SDS011;51605;47.040;15.294;2023-02-18T01:57:19;2.97;;;2.05;;
65037;SDS011;51605;47.040;15.294;2023-02-18T01:59:51;2.65;;;2.10;;
65037;SDS011;51605;47.040;15.294;2023-02-18T02:02:21;3.03;;;2.30;;
65037;SDS011;51605;47.040;15.294;2023-02-18T02:04:51;2.92;;;2.10;;
65037;SDS011;51605;47.040;15.294;2023-02-18T02:07:18;3.03;;;2.22;;
65037;SDS011;51605;47.040;15.294;2023-02-18T02:09:45;3.22;;;2.00;;
65037;SDS011;51605;47.040;15.294;2023-02-18T02:23:46;2.67;;;2.05;;
65037;SDS011;51605;47.040;15.294;2023-02-18T02:32:06;2.80;;;2.20;;
65037;SDS011;51605;47.040;15.294;2023-02-18T02:38:14;3.25;;;2.30;;
65037;SDS011;51605;47.040;15.294;2023-02-18T02:40:34;2.58;;;2.10;;
65037;SDS011;51605;47.040;15.294;2023-02-18T02:43:14;3.05;;;2.25;;
65037;SDS011;51605;47.040;15.294;2023-02-18T02:45:48;2.95;;;2.33;;
65037;SDS011;51605;47.040;15.294;2023-02-18T02:51:29;2.85;;;2.10;;
65037;SDS011;51605;47.040;15.294;2023-02-18T02:54:18;2.90;;;2.20;;
65037;SDS011;51605;47.040;15.294;2023-02-18T02:56:46;3.42;;;2.10;;
65037;SDS011;51605;47.040;15.294;2023-02-18T02:59:13;3.10;;;2.00;;
65037;SDS011;51605;47.040;15.294;2023-02-18T03:02:08;3.00;;;2.13;;
65037;SDS011;51605;47.040;15.294;2023-02-18T03:04:47;3.97;;;2.05;;
65037;SDS011;51605;47.040;15.294;2023-02-18T03:07:38;2.70;;;2.10;;
65037;SDS011;51605;47.040;15.294;2023-02-18T03:10:12;2.55;;;2.03;;
65037;SDS011;51605;47.040;15.294;2023-02-18T03:13:28;2.80;;;1.95;;
65037;SDS011;51605;47.040;15.294;2023-02-18T03:18:53;2.72;;;1.92;;
65037;SDS011;51605;47.040;15.294;2023-02-18T03:24:37;2.78;;;2.10;;
65037;SDS011;51605;47.040;15.294;2023-02-18T03:27:23;2.95;;;2.20;;
65037;SDS011;51605;47.040;15.294;2023-02-18T03:29:56;2.50;;;2.05;;
65037;SDS011;51605;47.040;15.294;2023-02-18T03:32:28;3.05;;;2.10;;
65037;SDS011;51605;47.040;15.294;2023-02-18T03:34:58;2.90;;;2.00;;
65037;SDS011;51605;47.040;15.294;2023-02-18T03:37:27;3.13;;;2.15;;
65037;SDS011;51605;47.040;15.294;2023-02-18T03:39:55;3.45;;;2.15;;
65037;SDS011;51605;47.040;15.294;2023-02-18T03:42:25;2.83;;;2.00;;
65037;SDS011;51605;47.040;15.294;2023-02-18T03:47:17;3.05;;;2.28;;
65037;SDS011;51605;47.040;15.294;2023-02-18T03:49:43;3.50;;;2.10;;
65037;SDS011;51605;47.040;15.294;2023-02-18T03:52:09;2.92;;;1.90;;
65037;SDS011;51605;47.040;15.294;2023-02-18T03:54:35;2.90;;;2.00;;
65037;SDS011;51605;47.040;15.294;2023-02-18T03:57:01;3.03;;;2.03;;
65037;SDS011;51605;47.040;15.294;2023-02-18T03:59:27;2.45;;;1.90;;
65037;SDS011;51605;47.040;15.294;2023-02-18T04:01:52;2.80;;;2.10;;
65037;SDS011;51605;47.040;15.294;2023-02-18T04:04:18;2.65;;;1.98;;
65037;SDS011;51605;47.040;15.294;2023-02-18T04:06:44;2.78;;;2.00;;
65037;SDS011;51605;47.040;15.294;2023-02-18T04:09:09;3.08;;;2.10;;
65037;SDS011;51605;47.040;15.294;2023-02-18T04:11:36;3.47;;;2.38;;
65037;SDS011;51605;47.040;15.294;2023-02-18T04:14:03;2.72;;;1.98;;
65037;SDS011;51605;47.040;15.294;2023-02-18T04:16:29;2.40;;;2.00;;
65037;SDS011;51605;47.040;15.294;2023-02-18T04:18:54;3.00;;;2.00;;
65037;SDS011;51605;47.040;15.294;2023-02-18T04:21:20;2.47;;;1.88;;
65037;SDS011;51605;47.040;15.294;2023-02-18T04:23:46;2.95;;;1.98;;
65037;SDS011;51605;47.040;15.294;2023-02-18T04:26:11;2.72;;;2.00;;
65037;SDS011;51605;47.040;15.294;2023-02-18T04:28:37;4.53;;;1.98;;
65037;SDS011;51605;47.040;15.294;2023-02-18T04:31:03;2.70;;;2.10;;
65037;SDS011;51605;47.040;15.294;2023-02-18T04:33:29;2.88;;;1.98;;
65037;SDS011;51605;47.040;15.294;2023-02-18T04:35:55;2.53;;;1.73;;
65037;SDS011;51605;47.040;15.294;2023-02-18T04:38:20;2.97;;;2.10;;
65037;SDS011;51605;47.040;15.294;2023-02-18T04:40:46;2.50;;;2.00;;
65037;SDS011;51605;47.040;15.294;2023-02-18T04:43:12;2.85;;;2.10;;
65037;SDS011;51605;47.040;15.294;2023-02-18T04:45:37;3.20;;;1.98;;
65037;SDS011;51605;47.040;15.294;2023-02-18T04:48:03;2.50;;;1.90;;
65037;SDS011;51605;47.040;15.294;2023-02-18T04:50:29;3.25;;;2.08;;
65037;SDS011;51605;47.040;15.294;2023-02-18T04:52:55;2.38;;;1.90;;
65037;SDS011;51605;47.040;15.294;2023-02-18T04:55:20;2.65;;;1.90;;
65037;SDS011;51605;47.040;15.294;2023-02-18T04:57:46;3.00;;;2.00;;
65037;SDS011;51605;47.040;15.294;2023-02-18T05:00:13;2.75;;;2.00;;
65037;SDS011;51605;47.040;15.294;2023-02-18T05:02:41;2.65;;;2.00;;
65037;SDS011;51605;47.040;15.294;2023-02-18T05:05:07;2.30;;;1.90;;
65037;SDS011;51605;47.040;15.294;2023-02-18T05:07:33;2.45;;;1.85;;
65037;SDS011;51605;47.040;15.294;2023-02-18T05:09:59;2.70;;;1.92;;
65037;SDS011;51605;47.040;15.294;2023-02-18T05:12:25;2.47;;;1.73;;
65037;SDS011;51605;47.040;15.294;2023-02-18T05:14:50;2.38;;;1.90;;
65037;SDS011;51605;47.040;15.294;2023-02-18T05:17:16;2.78;;;1.90;;
65037;SDS011;51605;47.040;15.294;2023-02-18T05:19:41;2.67;;;1.83;;
65037;SDS011;51605;47.040;15.294;2023-02-18T05:22:07;4.30;;;2.20;;
65037;SDS011;51605;47.040;15.294;2023-02-18T05:24:33;2.53;;;1.80;;
65037;SDS011;51605;47.040;15.294;2023-02-18T05:26:58;2.38;;;1.88;;
65037;SDS011;51605;47.040;15.294;2023-02-18T05:29:24;4.68;;;2.20;;
65037;SDS011;51605;47.040;15.294;2023-02-18T05:31:50;3.75;;;1.95;;
65037;SDS011;51605;47.040;15.294;2023-02-18T05:34:16;3.17;;;2.10;;
65037;SDS011;51605;47.040;15.294;2023-02-18T05:36:42;2.30;;;1.90;;
65037;SDS011;51605;47.040;15.294;2023-02-18T05:39:07;2.40;;;1.90;;
65037;SDS011;51605;47.040;15.294;2023-02-18T05:41:33;2.45;;;1.90;;
65037;SDS011;51605;47.040;15.294;2023-02-18T05:43:59;3.20;;;2.10;;
65037;SDS011;51605;47.040;15.294;2023-02-18T05:46:43;2.47;;;1.98;;
65037;SDS011;51605;47.040;15.294;2023-02-18T05:49:08;2.30;;;1.70;;
65037;SDS011;51605;47.040;15.294;2023-02-18T05:51:35;2.50;;;1.92;;
65037;SDS011;51605;47.040;15.294;2023-02-18T05:54:01;2.40;;;1.77;;
65037;SDS011;51605;47.040;15.294;2023-02-18T05:56:27;2.60;;;1.85;;
65037;SDS011;51605;47.040;15.294;2023-02-18T05:58:52;2.42;;;1.80;;
65037;SDS011;51605;47.040;15.294;2023-02-18T06:01:18;3.85;;;1.90;;
65037;SDS011;51605;47.040;15.294;2023-02-18T06:03:44;2.53;;;2.00;;
65037;SDS011;51605;47.040;15.294;2023-02-18T06:06:09;2.20;;;1.77;;
65037;SDS011;51605;47.040;15.294;2023-02-18T06:08:35;2.13;;;1.73;;
65037;SDS011;51605;47.040;15.294;2023-02-18T06:11:01;2.63;;;2.05;;
65037;SDS011;51605;47.040;15.294;2023-02-18T06:13:27;2.70;;;1.98;;
65037;SDS011;51605;47.040;15.294;2023-02-18T06:15:53;2.67;;;2.05;;
65037;SDS011;51605;47.040;15.294;2023-02-18T06:18:19;2.58;;;1.80;;
65037;SDS011;51605;47.040;15.294;2023-02-18T06:20:46;2.70;;;2.00;;
65037;SDS011;51605;47.040;15.294;2023-02-18T06:23:12;3.47;;;1.90;;
65037;SDS011;51605;47.040;15.294;2023-02-18T06:25:38;2.40;;;1.77;;
65037;SDS011;51605;47.040;15.294;2023-02-18T06:28:04;2.40;;;1.98;;
65037;SDS011;51605;47.040;15.294;2023-02-18T06:30:30;2.42;;;1.80;;
65037;SDS011;51605;47.040;15.294;2023-02-18T06:32:55;2.78;;;2.00;;
65037;SDS011;51605;47.040;15.294;2023-02-18T06:35:21;2.60;;;1.67;;
65037;SDS011;51605;47.040;15.294;2023-02-18T06:37:47;2.65;;;1.90;;
65037;SDS011;51605;47.040;15.294;2023-02-18T06:40:12;2.40;;;1.88;;
65037;SDS011;51605;47.040;15.294;2023-02-18T06:42:38;2.30;;;1.70;;
65037;SDS011;51605;47.040;15.294;2023-02-18T06:45:03;2.40;;;1.80;;
65037;SDS011;51605;47.040;15.294;2023-02-18T06:47:30;2.42;;;1.80;;
65037;SDS011;51605;47.040;15.294;2023-02-18T06:49:56;2.67;;;1.90;;
65037;SDS011;51605;47.040;15.294;2023-02-18T06:52:22;2.33;;;1.77;;
65037;SDS011;51605;47.040;15.294;2023-02-18T06:54:48;2.10;;;1.50;;
65037;SDS011;51605;47.040;15.294;2023-02-18T06:57:13;2.60;;;1.80;;
65037;SDS011;51605;47.040;15.294;2023-02-18T06:59:39;3.50;;;1.80;;
65037;SDS011;51605;47.040;15.294;2023-02-18T07:02:04;3.83;;;1.75;;
65037;SDS011;51605;47.040;15.294;2023-02-18T07:04:30;2.60;;;1.88;;
65037;SDS011;51605;47.040;15.294;2023-02-18T07:06:56;2.63;;;1.75;;
65037;SDS011;51605;47.040;15.294;2023-02-18T07:09:22;2.63;;;1.88;;
65037;SDS011;51605;47.040;15.294;2023-02-18T07:11:47;2.55;;;1.83;;
65037;SDS011;51605;47.040;15.294;2023-02-18T07:14:13;2.60;;;1.75;;
65037;SDS011;51605;47.040;15.294;2023-02-18T07:16:39;2.38;;;1.73;;
65037;SDS011;51605;47.040;15.294;2023-02-18T07:19:04;2.10;;;1.65;;
65037;SDS011;51605;47.040;15.294;2023-02-18T07:21:30;2.30;;;1.90;;
65037;SDS011;51605;47.040;15.294;2023-02-18T07:23:55;2.28;;;1.60;;
65037;SDS011;51605;47.040;15.294;2023-02-18T07:26:21;3.22;;;1.80;;
65037;SDS011;51605;47.040;15.294;2023-02-18T07:28:47;2.20;;;1.58;;
65037;SDS011;51605;47.040;15.294;2023-02-18T07:31:12;3.20;;;2.10;;
65037;SDS011;51605;47.040;15.294;2023-02-18T07:33:38;2.40;;;1.77;;
65037;SDS011;51605;47.040;15.294;2023-02-18T07:36:04;2.40;;;1.80;;
65037;SDS011;51605;47.040;15.294;2023-02-18T07:38:30;2.60;;;1.85;;
65037;SDS011;51605;47.040;15.294;2023-02-18T07:40:56;2.40;;;1.83;;
65037;SDS011;51605;47.040;15.294;2023-02-18T07:43:22;2.17;;;1.70;;
65037;SDS011;51605;47.040;15.294;2023-02-18T07:45:48;2.60;;;1.73;;
65037;SDS011;51605;47.040;15.294;2023-02-18T07:48:14;1.83;;;1.52;;
65037;SDS011;51605;47.040;15.294;2023-02-18T07:50:41;2.38;;;1.80;;
65037;SDS011;51605;47.040;15.294;2023-02-18T07:53:09;2.45;;;1.80;;
65037;SDS011;51605;47.040;15.294;2023-02-18T07:55:35;2.47;;;1.80;;
65037;SDS011;51605;47.040;15.294;2023-02-18T07:58:14;2.83;;;1.85;;
65037;SDS011;51605;47.040;15.294;2023-02-18T08:00:45;2.25;;;1.67;;
65037;SDS011;51605;47.040;15.294;2023-02-18T08:03:12;1.83;;;1.58;;
65037;SDS011;51605;47.040;15.294;2023-02-18T08:05:38;2.65;;;1.73;;
65037;SDS011;51605;47.040;15.294;2023-02-18T08:08:04;2.28;;;1.67;;
65037;SDS011;51605;47.040;15.294;2023-02-18T08:10:30;2.30;;;1.70;;
65037;SDS011;51605;47.040;15.294;2023-02-18T08:12:56;2.47;;;1.70;;
65037;SDS011;51605;47.040;15.294;2023-02-18T08:15:21;2.08;;;1.60;;
65037;SDS011;51605;47.040;15.294;2023-02-18T08:17:47;3.60;;;1.80;;
65037;SDS011;51605;47.040;15.294;2023-02-18T08:20:13;2.50;;;1.70;;
65037;SDS011;51605;47.040;15.294;2023-02-18T08:22:38;2.17;;;1.60;;
65037;SDS011;51605;47.040;15.294;2023-02-18T08:25:04;2.40;;;1.80;;
65037;SDS011;51605;47.040;15.294;2023-02-18T08:27:30;3.55;;;1.75;;
65037;SDS011;51605;47.040;15.294;2023-02-18T08:29:56;2.28;;;1.60;;
65037;SDS011;51605;47.040;15.294;2023-02-18T08:32:22;3.58;;;1.80;;
65037;SDS011;51605;47.040;15.294;2023-02-18T08:34:51;3.00;;;1.70;;
65037;SDS011;51605;47.040;15.294;2023-02-18T08:37:17;2.13;;;1.60;;
65037;SDS011;51605;47.040;15.294;2023-02-18T08:39:42;2.13;;;1.70;;
65037;SDS011;51605;47.040;15.294;2023-02-18T08:42:08;2.33;;;1.63;;
65037;SDS011;51605;47.040;15.294;2023-02-18T08:44:34;3.33;;;1.60;;
65037;SDS011;51605;47.040;15.294;2023-02-18T08:46:59;1.95;;;1.50;;
65037;SDS011;51605;47.040;15.294;2023-02-18T08:49:25;2.38;;;1.60;;
65037;SDS011;51605;47.040;15.294;2023-02-18T08:51:50;2.63;;;1.60;;
65037;SDS011;51605;47.040;15.294;2023-02-18T08:54:16;2.25;;;1.60;;
65037;SDS011;51605;47.040;15.294;2023-02-18T08:56:42;2.65;;;1.58;;
65037;SDS011;51605;47.040;15.294;2023-02-18T08:59:08;3.38;;;1.65;;
65037;SDS011;51605;47.040;15.294;2023-02-18T09:01:34;3.67;;;1.70;;
65037;SDS011;51605;47.040;15.294;2023-02-18T09:04:00;2.00;;;1.50;;
65037;SDS011;51605;47.040;15.294;2023-02-18T09:06:25;3.55;;;1.92;;
65037;SDS011;51605;47.040;15.294;2023-02-18T09:08:51;2.50;;;1.73;;
65037;SDS011;51605;47.040;15.294;2023-02-18T09:11:17;2.30;;;1.50;;
65037;SDS011;51605;47.040;15.294;2023-02-18T09:13:43;5.30;;;1.80;;
65037;SDS011;51605;47.040;15.294;2023-02-18T09:16:14;2.65;;;1.60;;
65037;SDS011;51605;47.040;15.294;2023-02-18T09:18:45;3.55;;;1.50;;
65037;SDS011;51605;47.040;15.294;2023-02-18T09:21:12;3.53;;;1.50;;
65037;SDS011;51605;47.040;15.294;2023-02-18T09:23:40;3.53;;;1.50;;
65037;SDS011;51605;47.040;15.294;2023-02-18T09:26:10;3.77;;;1.50;;
65037;SDS011;51605;47.040;15.294;2023-02-18T09:28:39;3.30;;;1.38;;
65037;SDS011;51605;47.040;15.294;2023-02-18T09:31:05;4.10;;;1.70;;
65037;SDS011;51605;47.040;15.294;2023-02-18T09:33:39;3.55;;;1.55;;
65037;SDS011;51605;47.040;15.294;2023-02-18T09:36:07;2.10;;;1.40;;
65037;SDS011;51605;47.040;15.294;2023-02-18T09:38:33;3.03;;;1.50;;
65037;SDS011;51605;47.040;15.294;2023-02-18T09:40:59;3.77;;;1.50;;
65037;SDS011;51605;47.040;15.294;2023-02-18T09:45:57;2.78;;;1.50;;
65037;SDS011;51605;47.040;15.294;2023-02-18T09:48:26;2.42;;;1.50;;
65037;SDS011;51605;47.040;15.294;2023-02-18T09:50:57;5.47;;;1.60;;
65037;SDS011;51605;47.040;15.294;2023-02-18T09:53:23;2.72;;;1.33;;
65037;SDS011;51605;47.040;15.294;2023-02-18T09:55:50;3.25;;;1.40;;
65037;SDS011;51605;47.040;15.294;2023-02-18T09:58:19;1.95;;;1.48;;
65037;SDS011;51605;47.040;15.294;2023-02-18T10:00:47;1.77;;;1.27;;
65037;SDS011;51605;47.040;15.294;2023-02-18T10:03:29;4.35;;;1.58;;
65037;SDS011;51605;47.040;15.294;2023-02-18T10:06:09;3.22;;;1.65;;
65037;SDS011;51605;47.040;15.294;2023-02-18T10:08:45;2.20;;;1.50;;
65037;SDS011;51605;47.040;15.294;2023-02-18T10:11:17;3.10;;;1.50;;
65037;SDS011;51605;47.040;15.294;2023-02-18T10:13:57;1.73;;;1.35;;
65037;SDS011;51605;47.040;15.294;2023-02-18T10:16:25;3.35;;;1.42;;
65037;SDS011;51605;47.040;15.294;2023-02-18T10:18:58;2.47;;;1.37;;
65037;SDS011;51605;47.040;15.294;2023-02-18T10:21:29;2.47;;;1.50;;
65037;SDS011;51605;47.040;15.294;2023-02-18T10:24:03;3.67;;;1.60;;
65037;SDS011;51605;47.040;15.294;2023-02-18T10:26:33;2.05;;;1.40;;
65037;SDS011;51605;47.040;15.294;2023-02-18T10:29:01;2.03;;;1.30;;
65037;SDS011;51605;47.040;15.294;2023-02-18T10:31:32;2.13;;;1.50;;
65037;SDS011;51605;47.040;15.294;2023-02-18T10:36:44;2.22;;;1.38;;
65037;SDS011;51605;47.040;15.294;2023-02-18T10:39:24;2.63;;;1.50;;
65037;SDS011;51605;47.040;15.294;2023-02-18T10:52:29;4.10;;;1.48;;
65037;SDS011;51605;47.040;15.294;2023-02-18T10:57:30;2.58;;;1.48;;
65037;SDS011;51605;47.040;15.294;2023-02-18T11:02:40;1.50;;;1.23;;
65037;SDS011;51605;47.040;15.294;2023-02-18T11:05:24;4.22;;;1.40;;
65037;SDS011;51605;47.040;15.294;2023-02-18T11:07:52;1.52;;;1.20;;
65037;SDS011;51605;47.040;15.294;2023-02-18T11:10:22;1.77;;;1.27;;
65037;SDS011;51605;47.040;15.294;2023-02-18T11:13:17;1.77;;;1.30;;
65037;SDS011;51605;47.040;15.294;2023-02-18T11:15:54;2.53;;;1.60;;
65037;SDS011;51605;47.040;15.294;2023-02-18T11:18:31;1.85;;;1.33;;
65037;SDS011;51605;47.040;15.294;2023-02-18T11:23:51;2.40;;;1.30;;
65037;SDS011;51605;47.040;15.294;2023-02-18T11:26:29;1.52;;;1.20;;
65037;SDS011;51605;47.040;15.294;2023-02-18T11:29:01;2.20;;;1.65;;
65037;SDS011;51605;47.040;15.294;2023-02-18T11:31:45;1.67;;;1.20;;
65037;SDS011;51605;47.040;15.294;2023-02-18T11:34:17;1.75;;;1.30;;
65037;SDS011;51605;47.040;15.294;2023-02-18T11:36:46;2.33;;;1.40;;
65037;SDS011;51605;47.040;15.294;2023-02-18T11:42:02;3.33;;;1.30;;
65037;SDS011;51605;47.040;15.294;2023-02-18T11:44:31;1.77;;;1.27;;
65037;SDS011;51605;47.040;15.294;2023-02-18T11:47:04;1.77;;;1.30;;
65037;SDS011;51605;47.040;15.294;2023-02-18T11:49:31;2.92;;;1.48;;
65037;SDS011;51605;47.040;15.294;2023-02-18T11:52:02;2.95;;;1.88;;
65037;SDS011;51605;47.040;15.294;2023-02-18T11:55:05;2.45;;;1.55;;
65037;SDS011;51605;47.040;15.294;2023-02-18T11:57:38;2.85;;;1.52;;
65037;SDS011;51605;47.040;15.294;2023-02-18T12:00:19;3.90;;;1.80;;
65037;SDS011;51605;47.040;15.294;2023-02-18T12:02:45;3.33;;;1.60;;
65037;SDS011;51605;47.040;15.294;2023-02-18T12:05:22;3.97;;;1.97;;
65037;SDS011;51605;47.040;15.294;2023-02-18T12:07:51;3.40;;;2.03;;
65037;SDS011;51605;47.040;15.294;2023-02-18T12:10:39;4.22;;;1.88;;
65037;SDS011;51605;47.040;15.294;2023-02-18T12:16:02;6.72;;;2.20;;
65037;SDS011;51605;47.040;15.294;2023-02-18T12:27:31;5.75;;;1.90;;
65037;SDS011;51605;47.040;15.294;2023-02-18T12:35:27;5.35;;;1.98;;
65037;SDS011;51605;47.040;15.294;2023-02-18T12:43:33;6.03;;;2.40;;
65037;SDS011;51605;47.040;15.294;2023-02-18T12:49:29;5.07;;;2.20;;
65037;SDS011;51605;47.040;15.294;2023-02-18T12:57:06;4.07;;;2.15;;
65037;SDS011;51605;47.040;15.294;2023-02-18T13:17:59;3.55;;;2.00;;
65037;SDS011;51605;47.040;15.294;2023-02-18T13:23:15;4.05;;;2.03;;
65037;SDS011;51605;47.040;15.294;2023-02-18T13:25:48;4.45;;;2.08;;
65037;SDS011;51605;47.040;15.294;2023-02-18T13:28:38;4.55;;;2.20;;
65037;SDS011;51605;47.040;15.294;2023-02-18T13:39:48;2.95;;;1.83;;
65037;SDS011;51605;47.040;15.294;2023-02-18T13:47:10;4.60;;;2.10;;
65037;SDS011;51605;47.040;15.294;2023-02-18T13:49:56;3.72;;;2.13;;
65037;SDS011;51605;47.040;15.294;2023-02-18T13:52:22;4.50;;;2.15;;
65037;SDS011;51605;47.040;15.294;2023-02-18T13:54:47;3.45;;;2.17;;
65037;SDS011;51605;47.040;15.294;2023-02-18T13:57:20;5.07;;;2.10;;
65037;SDS011;51605;47.040;15.294;2023-02-18T13:59:56;4.88;;;2.38;;
65037;SDS011;51605;47.040;15.294;2023-02-18T14:15:45;3.28;;;2.00;;
65037;SDS011;51605;47.040;15.294;2023-02-18T14:25:56;3.35;;;2.00;;
65037;SDS011;51605;47.040;15.294;2023-02-18T14:33:40;3.55;;;2.00;;
65037;SDS011;51605;47.040;15.294;2023-02-18T14:39:04;4.28;;;2.10;;
65037;SDS011;51605;47.040;15.294;2023-02-18T14:47:38;3.42;;;1.90;;
65037;SDS011;51605;47.040;15.294;2023-02-18T14:50:29;4.35;;;2.30;;
65037;SDS011;51605;47.040;15.294;2023-02-18T14:52:58;4.30;;;2.05;;
65037;SDS011;51605;47.040;15.294;2023-02-18T14:55:37;3.88;;;2.25;;
65037;SDS011;51605;47.040;15.294;2023-02-18T14:58:12;5.13;;;2.33;;
65037;SDS011;51605;47.040;15.294;2023-02-18T15:00:44;3.97;;;2.08;;
65037;SDS011;51605;47.040;15.294;2023-02-18T15:03:14;3.03;;;1.80;;
65037;SDS011;51605;47.040;15.294;2023-02-18T15:05:44;4.32;;;2.30;;
65037;SDS011;51605;47.040;15.294;2023-02-18T15:13:30;2.88;;;1.90;;
65037;SDS011;51605;47.040;15.294;2023-02-18T15:16:06;3.03;;;1.90;;
65037;SDS011;51605;47.040;15.294;2023-02-18T15:18:35;2.72;;;1.90;;
65037;SDS011;51605;47.040;15.294;2023-02-18T15:21:13;3.25;;;2.17;;
65037;SDS011;51605;47.040;15.294;2023-02-18T15:23:45;3.40;;;2.10;;
65037;SDS011;51605;47.040;15.294;2023-02-18T15:26:14;4.55;;;2.17;;
65037;SDS011;51605;47.040;15.294;2023-02-18T15:28:41;4.32;;;2.00;;
65037;SDS011;51605;47.040;15.294;2023-02-18T15:31:24;3.58;;;2.20;;
65037;SDS011;51605;47.040;15.294;2023-02-18T15:33:55;4.45;;;2.30;;
65037;SDS011;51605;47.040;15.294;2023-02-18T15:36:24;3.50;;;1.90;;
65037;SDS011;51605;47.040;15.294;2023-02-18T15:38:50;3.05;;;1.88;;
65037;SDS011;51605;47.040;15.294;2023-02-18T15:41:17;3.35;;;2.22;;
65037;SDS011;51605;47.040;15.294;2023-02-18T15:43:51;2.95;;;2.00;;
65037;SDS011;51605;47.040;15.294;2023-02-18T15:46:28;3.20;;;2.13;;
65037;SDS011;51605;47.040;15.294;2023-02-18T15:48:55;3.75;;;1.80;;
65037;SDS011;51605;47.040;15.294;2023-02-18T15:51:25;3.05;;;2.00;;
65037;SDS011;51605;47.040;15.294;2023-02-18T15:53:55;4.20;;;2.00;;
65037;SDS011;51605;47.040;15.294;2023-02-18T15:58:55;4.00;;;2.20;;
65037;SDS011;51605;47.040;15.294;2023-02-18T16:01:34;2.97;;;2.05;;
65037;SDS011;51605;47.040;15.294;2023-02-18T16:04:01;3.65;;;2.00;;
65037;SDS011;51605;47.040;15.294;2023-02-18T16:06:30;2.70;;;1.90;;
65037;SDS011;51605;47.040;15.294;2023-02-18T16:11:40;3.38;;;2.00;;
65037;SDS011;51605;47.040;15.294;2023-02-18T16:14:22;3.28;;;2.08;;
65037;SDS011;51605;47.040;15.294;2023-02-18T16:17:13;3.13;;;2.10;;
65037;SDS011;51605;47.040;15.294;2023-02-18T16:19:41;3.40;;;2.03;;
65037;SDS011;51605;47.040;15.294;2023-02-18T16:25:16;5.15;;;2.22;;
65037;SDS011;51605;47.040;15.294;2023-02-18T16:30:37;2.55;;;1.95;;
65037;SDS011;51605;47.040;15.294;2023-02-18T16:33:05;2.65;;;1.88;;
65037;SDS011;51605;47.040;15.294;2023-02-18T16:35:31;3.17;;;2.00;;
65037;SDS011;51605;47.040;15.294;2023-02-18T16:37:57;3.67;;;2.00;;
65037;SDS011;51605;47.040;15.294;2023-02-18T16:40:27;3.17;;;1.98;;
65037;SDS011;51605;47.040;15.294;2023-02-18T16:43:19;2.60;;;2.00;;
65037;SDS011;51605;47.040;15.294;2023-02-18T16:45:52;3.90;;;2.10;;
65037;SDS011;51605;47.040;15.294;2023-02-18T16:48:32;2.75;;;2.00;;
65037;SDS011;51605;47.040;15.294;2023-02-18T16:51:14;3.20;;;2.03;;
65037;SDS011;51605;47.040;15.294;2023-02-18T16:53:42;3.08;;;1.92;;
65037;SDS011;51605;47.040;15.294;2023-02-18T16:56:12;3.72;;;2.00;;
65037;SDS011;51605;47.040;15.294;2023-02-18T16:58:40;3.42;;;2.00;;
65037;SDS011;51605;47.040;15.294;2023-02-18T17:01:07;2.97;;;2.00;;
65037;SDS011;51605;47.040;15.294;2023-02-18T17:03:44;3.33;;;2.40;;
65037;SDS011;51605;47.040;15.294;2023-02-18T17:06:10;5.07;;;2.20;;
65037;SDS011;51605;47.040;15.294;2023-02-18T17:08:35;2.53;;;1.80;;
65037;SDS011;51605;47.040;15.294;2023-02-18T17:11:01;2.83;;;2.03;;
65037;SDS011;51605;47.040;15.294;2023-02-18T17:13:28;4.07;;;2.20;;
65037;SDS011;51605;47.040;15.294;2023-02-18T17:15:54;4.22;;;2.08;;
65037;SDS011;51605;47.040;15.294;2023-02-18T17:18:22;3.30;;;2.05;;
65037;SDS011;51605;47.040;15.294;2023-02-18T17:23:19;5.68;;;2.20;;
65037;SDS011;51605;47.040;15.294;2023-02-18T17:25:47;4.00;;;2.30;;
65037;SDS011;51605;47.040;15.294;2023-02-18T17:28:17;4.88;;;2.40;;
65037;SDS011;51605;47.040;15.294;2023-02-18T17:30:44;2.80;;;2.03;;
65037;SDS011;51605;47.040;15.294;2023-02-18T17:33:12;3.70;;;2.40;;
65037;SDS011;51605;47.040;15.294;2023-02-18T17:35:40;3.47;;;2.40;;
65037;SDS011;51605;47.040;15.294;2023-02-18T17:38:10;3.60;;;2.20;;
65037;SDS011;51605;47.040;15.294;2023-02-18T17:40:37;3.03;;;2.25;;
65037;SDS011;51605;47.040;15.294;2023-02-18T17:43:03;5.25;;;2.60;;
65037;SDS011;51605;47.040;15.294;2023-02-18T17:45:50;3.50;;;2.40;;
65037;SDS011;51605;47.040;15.294;2023-02-18T17:48:18;3.83;;;2.38;;